createdAt,value
2018-04-14T00:00:15.142Z,9.20
2018-04-14T00:02:41.271Z,9.20
2018-04-14T00:05:07.362Z,9.30
2018-04-14T00:07:33.454Z,9.30
2018-04-14T00:09:59.521Z,9.30
2018-04-14T00:12:26.363Z,9.20
2018-04-14T00:14:52.465Z,9.30
2018-04-14T00:17:19.724Z,9.30
2018-04-14T00:19:45.873Z,9.30
2018-04-14T00:22:12.014Z,9.30
2018-04-14T00:24:38.328Z,9.20
2018-04-14T00:27:04.410Z,9.20
2018-04-14T00:29:30.509Z,9.20
2018-04-14T00:31:56.868Z,9.20
2018-04-14T00:34:23.232Z,9.10
2018-04-14T00:36:49.272Z,9.20
2018-04-14T00:39:15.548Z,9.10
2018-04-14T00:41:41.627Z,9.10
2018-04-14T00:44:07.693Z,9.10
2018-04-14T00:46:33.814Z,9.10
2018-04-14T00:48:59.910Z,9.10
2018-04-14T00:51:26.048Z,9.10
2018-04-14T00:53:52.170Z,9.00
2018-04-14T00:56:19.011Z,8.80
2018-04-14T00:58:45.124Z,8.80
2018-04-14T01:01:11.943Z,8.70
2018-04-14T01:03:37.975Z,8.70
2018-04-14T01:06:04.042Z,8.70
2018-04-14T01:08:30.128Z,8.70
2018-04-14T01:10:56.233Z,8.60
2018-04-14T01:13:22.644Z,8.60
2018-04-14T01:15:48.775Z,8.60
2018-04-14T01:18:14.846Z,8.50
2018-04-14T01:20:40.954Z,8.50
2018-04-14T01:23:07.009Z,8.50
2018-04-14T01:25:33.050Z,8.40
2018-04-14T01:27:59.126Z,8.40
2018-04-14T01:30:25.156Z,8.40
2018-04-14T01:32:52.786Z,8.30
2018-04-14T01:35:18.857Z,8.30
2018-04-14T01:37:44.909Z,8.40
2018-04-14T01:40:10.960Z,8.30
2018-04-14T01:42:37.066Z,8.30
2018-04-14T01:45:03.335Z,8.30
2018-04-14T01:47:30.105Z,8.30
2018-04-14T01:49:57.019Z,8.40
2018-04-14T01:52:23.209Z,8.30
2018-04-14T01:54:50.139Z,8.40
2018-04-14T01:57:16.981Z,8.30
2018-04-14T01:59:43.819Z,8.30
2018-04-14T02:02:09.905Z,8.30
2018-04-14T02:04:36.787Z,8.30
2018-04-14T02:07:02.911Z,8.30
2018-04-14T02:09:29.714Z,8.30
2018-04-14T02:12:02.740Z,8.30
2018-04-14T02:14:28.847Z,8.30
2018-04-14T02:16:54.898Z,8.30
2018-04-14T02:19:20.992Z,8.30
2018-04-14T02:21:47.041Z,8.30
2018-04-14T02:24:13.239Z,8.30
2018-04-14T02:26:39.289Z,8.30
2018-04-14T02:29:06.119Z,8.30
2018-04-14T02:31:32.422Z,8.30
2018-04-14T02:33:58.450Z,8.30
2018-04-14T02:36:24.501Z,8.40
2018-04-14T02:38:50.578Z,8.40
2018-04-14T02:41:16.615Z,8.40
2018-04-14T02:43:43.080Z,8.30
2018-04-14T02:46:09.886Z,8.20
2018-04-14T02:48:36.054Z,8.20
2018-04-14T02:51:02.178Z,8.20
2018-04-14T02:53:28.253Z,8.20
2018-04-14T02:55:55.051Z,8.20
2018-04-14T02:58:21.582Z,8.20
2018-04-14T03:00:47.698Z,8.20
2018-04-14T03:03:13.768Z,8.20
2018-04-14T03:05:39.862Z,8.20
2018-04-14T03:08:06.016Z,8.20
2018-04-14T03:10:32.828Z,8.20
2018-04-14T03:12:59.674Z,8.20
2018-04-14T03:15:25.861Z,8.20
2018-04-14T03:17:52.022Z,8.20
2018-04-14T03:20:18.094Z,8.30
2018-04-14T03:22:44.265Z,8.20
2018-04-14T03:25:10.407Z,8.20
2018-04-14T03:27:36.547Z,8.20
2018-04-14T03:30:02.631Z,8.20
2018-04-14T03:32:28.698Z,8.20
2018-04-14T03:34:54.803Z,8.20
2018-04-14T03:37:21.350Z,8.20
2018-04-14T03:39:47.398Z,8.20
2018-04-14T03:42:13.499Z,8.20
2018-04-14T03:44:39.602Z,8.20
2018-04-14T03:47:06.419Z,8.20
2018-04-14T03:49:32.489Z,8.20
2018-04-14T03:51:58.548Z,8.20
2018-04-14T03:54:25.397Z,8.20
2018-04-14T03:56:51.483Z,8.20
2018-04-14T03:59:17.626Z,8.20
2018-04-14T04:01:43.762Z,8.20
2018-04-14T04:04:09.832Z,8.30
2018-04-14T04:06:36.663Z,8.30
2018-04-14T04:09:02.729Z,8.30
2018-04-14T04:11:28.789Z,8.30
2018-04-14T04:13:54.858Z,8.30
2018-04-14T04:16:20.990Z,8.20
2018-04-14T04:18:59.358Z,8.30
2018-04-14T04:21:37.790Z,8.30
2018-04-14T04:24:16.152Z,8.30
2018-04-14T04:26:42.281Z,8.30
2018-04-14T04:29:08.356Z,8.20
2018-04-14T04:31:34.832Z,8.30
2018-04-14T04:34:00.876Z,8.30
2018-04-14T04:36:26.938Z,8.20
2018-04-14T04:38:53.013Z,8.20
2018-04-14T04:41:19.091Z,8.20
2018-04-14T04:43:45.159Z,8.20
2018-04-14T04:46:11.230Z,8.20
2018-04-14T04:48:37.414Z,8.20
2018-04-14T04:51:03.480Z,8.20
2018-04-14T04:53:29.617Z,8.20
2018-04-14T04:55:55.706Z,8.20
2018-04-14T04:58:21.785Z,8.20
2018-04-14T05:00:47.848Z,8.20
2018-04-14T05:03:13.898Z,8.20
2018-04-14T05:05:39.950Z,8.20
2018-04-14T05:08:06.121Z,8.20
2018-04-14T05:10:32.169Z,8.20
2018-04-14T05:12:58.226Z,8.30
2018-04-14T05:15:24.292Z,8.30
2018-04-14T05:17:50.864Z,8.30
2018-04-14T05:20:16.932Z,8.30
2018-04-14T05:22:42.983Z,8.30
2018-04-14T05:25:09.246Z,8.30
2018-04-14T05:27:36.145Z,8.30
2018-04-14T05:30:02.230Z,8.30
2018-04-14T05:32:29.216Z,8.40
2018-04-14T05:34:55.276Z,8.40
2018-04-14T05:37:21.536Z,8.40
2018-04-14T05:39:47.618Z,8.40
2018-04-14T05:42:14.444Z,8.50
2018-04-14T05:44:40.532Z,8.50
2018-04-14T05:47:06.683Z,8.40
2018-04-14T05:49:32.732Z,8.40
2018-04-14T05:51:58.814Z,8.50
2018-04-14T05:54:25.623Z,8.50
2018-04-14T05:56:51.746Z,8.50
2018-04-14T05:59:17.966Z,8.50
2018-04-14T06:01:44.798Z,8.50
2018-04-14T06:04:10.889Z,8.50
2018-04-14T06:06:36.959Z,8.50
2018-04-14T06:09:03.175Z,8.50
2018-04-14T06:11:29.251Z,8.60
2018-04-14T06:13:56.042Z,8.60
2018-04-14T06:16:23.541Z,8.60
2018-04-14T06:18:49.736Z,8.60
2018-04-14T06:21:16.590Z,8.60
2018-04-14T06:23:43.378Z,8.70
2018-04-14T06:26:09.459Z,8.70
2018-04-14T06:28:35.549Z,8.70
2018-04-14T06:31:01.676Z,8.80
2018-04-14T06:33:27.766Z,8.80
2018-04-14T06:35:54.145Z,8.80
2018-04-14T06:38:21.030Z,8.80
2018-04-14T06:40:47.093Z,8.80
2018-04-14T06:43:13.252Z,8.80
2018-04-14T06:45:39.360Z,8.80
2018-04-14T06:48:05.498Z,8.80
2018-04-14T06:50:46.681Z,8.90
2018-04-14T06:53:12.757Z,8.90
2018-04-14T06:55:38.828Z,9.00
2018-04-14T06:58:05.681Z,9.00
2018-04-14T07:00:32.540Z,9.00
2018-04-14T07:02:58.612Z,9.00
2018-04-14T07:05:25.670Z,9.00
2018-04-14T07:07:51.885Z,9.00
2018-04-14T07:10:18.074Z,9.00
2018-04-14T07:12:44.280Z,9.00
2018-04-14T07:15:10.348Z,9.00
2018-04-14T07:17:36.457Z,9.00
2018-04-14T07:20:02.611Z,9.00
2018-04-14T07:25:01.511Z,9.10
2018-04-14T07:27:28.375Z,9.10
2018-04-14T07:29:54.534Z,9.10
2018-04-14T07:32:20.652Z,9.10
2018-04-14T07:34:46.716Z,9.20
2018-04-14T07:37:12.778Z,9.20
2018-04-14T07:39:38.917Z,9.10
2018-04-14T07:42:05.034Z,9.10
2018-04-14T07:44:37.620Z,9.20
2018-04-14T07:47:03.722Z,9.20
2018-04-14T07:49:30.546Z,9.30
2018-04-14T07:51:56.623Z,9.30
2018-04-14T07:54:23.464Z,9.20
2018-04-14T07:56:50.309Z,9.10
2018-04-14T07:59:17.190Z,9.10
2018-04-14T08:01:43.997Z,9.20
2018-04-14T08:04:10.070Z,9.10
2018-04-14T08:06:36.950Z,9.20
2018-04-14T08:09:03.058Z,9.20
2018-04-14T08:11:29.123Z,9.20
2018-04-14T08:13:55.197Z,9.20
2018-04-14T08:16:21.305Z,9.20
2018-04-14T08:18:47.357Z,9.20
2018-04-14T08:21:13.435Z,9.20
2018-04-14T08:23:39.499Z,9.20
2018-04-14T08:26:06.359Z,9.20
2018-04-14T08:28:32.406Z,9.20
2018-04-14T08:30:58.639Z,9.20
2018-04-14T08:33:24.721Z,9.20
2018-04-14T08:35:50.790Z,9.10
2018-04-14T08:38:17.045Z,9.10
2018-04-14T08:40:43.873Z,9.10
2018-04-14T08:43:09.998Z,9.10
2018-04-14T08:45:36.089Z,9.10
2018-04-14T08:48:02.368Z,9.00
2018-04-14T08:50:28.418Z,9.00
2018-04-14T08:52:54.495Z,9.00
2018-04-14T08:55:21.363Z,9.00
2018-04-14T08:57:47.514Z,8.90
2018-04-14T09:00:13.846Z,8.90
2018-04-14T09:02:40.692Z,8.90
2018-04-14T09:05:07.515Z,8.80
2018-04-14T09:07:33.603Z,8.80
2018-04-14T09:09:59.666Z,8.80
2018-04-14T09:12:25.822Z,8.80
2018-04-14T09:14:52.056Z,8.70
2018-04-14T09:17:18.139Z,8.70
2018-04-14T09:19:44.971Z,8.70
2018-04-14T09:22:11.076Z,8.70
2018-04-14T09:24:37.230Z,8.60
2018-04-14T09:27:03.276Z,8.60
2018-04-14T09:29:29.371Z,8.60
2018-04-14T09:31:55.470Z,8.60
2018-04-14T09:34:21.547Z,8.60
2018-04-14T09:36:47.640Z,8.60
2018-04-14T09:39:13.727Z,8.60
2018-04-14T09:41:39.869Z,8.60
2018-04-14T09:44:05.985Z,8.60
2018-04-14T09:46:32.066Z,8.60
2018-04-14T09:48:58.147Z,8.60
2018-04-14T09:51:24.980Z,8.60
2018-04-14T09:53:51.101Z,8.70
2018-04-14T09:56:17.167Z,8.60
2018-04-14T09:58:49.926Z,8.70
2018-04-14T10:01:22.307Z,8.70
2018-04-14T10:03:50.510Z,8.60
2018-04-14T10:06:16.626Z,8.60
2018-04-14T10:08:42.735Z,8.50
2018-04-14T10:11:09.697Z,8.50
2018-04-14T10:13:37.398Z,8.60
2018-04-14T10:16:03.475Z,8.50
2018-04-14T10:18:29.776Z,8.60
2018-04-14T10:20:55.869Z,8.60
2018-04-14T10:23:24.808Z,8.50
2018-04-14T10:25:50.929Z,8.50
2018-04-14T10:28:17.107Z,8.60
2018-04-14T10:30:43.282Z,8.50
2018-04-14T10:33:10.120Z,8.50
2018-04-14T10:35:36.249Z,8.50
2018-04-14T10:38:02.355Z,8.50
2018-04-14T10:40:28.458Z,8.50
2018-04-14T10:42:54.546Z,8.50
2018-04-14T10:45:20.695Z,8.50
2018-04-14T10:47:46.792Z,8.50
2018-04-14T10:50:13.003Z,8.50
2018-04-14T10:52:39.207Z,8.50
2018-04-14T10:55:05.353Z,8.50
2018-04-14T10:57:31.577Z,8.50
2018-04-14T10:59:57.796Z,8.50
2018-04-14T11:02:24.115Z,8.60
2018-04-14T11:04:51.016Z,8.50
2018-04-14T11:07:18.072Z,8.50
2018-04-14T11:09:44.929Z,8.50
2018-04-14T11:12:11.009Z,8.50
2018-04-14T11:14:37.231Z,8.60
2018-04-14T11:17:03.277Z,8.60
2018-04-14T11:19:29.375Z,8.60
2018-04-14T11:21:56.246Z,8.60
2018-04-14T11:24:23.268Z,8.50
2018-04-14T11:26:49.392Z,8.60
2018-04-14T11:29:15.470Z,8.60
2018-04-14T11:31:42.390Z,8.60
2018-04-14T11:34:08.487Z,8.60
2018-04-14T11:36:34.686Z,8.60
2018-04-14T11:39:00.819Z,8.60
2018-04-14T11:41:26.929Z,8.60
2018-04-14T11:43:53.152Z,8.60
2018-04-14T11:46:19.337Z,8.70
2018-04-14T11:48:45.619Z,8.70
2018-04-14T11:51:11.686Z,8.70
2018-04-14T11:53:37.875Z,8.70
2018-04-14T11:56:04.115Z,8.80
2018-04-14T11:58:30.218Z,8.80
2018-04-14T12:00:56.391Z,8.70
2018-04-14T12:03:22.841Z,8.70
2018-04-14T12:05:49.800Z,8.70
2018-04-14T12:08:16.646Z,8.80
2018-04-14T12:10:42.801Z,8.80
2018-04-14T12:13:09.066Z,8.80
2018-04-14T12:15:35.203Z,8.80
2018-04-14T12:18:01.292Z,8.70
2018-04-14T12:20:27.380Z,8.70
2018-04-14T12:22:53.664Z,8.70
2018-04-14T12:25:20.627Z,8.80
2018-04-14T12:27:47.166Z,8.70
2018-04-14T12:30:13.215Z,8.70
2018-04-14T12:32:39.318Z,8.70
2018-04-14T12:35:05.429Z,8.70
2018-04-14T12:37:31.697Z,8.70
2018-04-14T12:39:57.782Z,8.70
2018-04-14T12:42:23.987Z,8.80
2018-04-14T12:44:50.227Z,8.80
2018-04-14T12:47:16.407Z,8.80
2018-04-14T12:49:42.510Z,8.90
2018-04-14T12:52:08.636Z,8.80
2018-04-14T12:54:34.921Z,8.80
2018-04-14T12:57:01.449Z,8.80
2018-04-14T12:59:27.803Z,8.80
2018-04-14T13:01:53.922Z,8.70
2018-04-14T13:04:20.111Z,8.80
2018-04-14T13:06:47.330Z,8.80
2018-04-14T13:09:13.445Z,8.70
2018-04-14T13:11:39.703Z,8.70
2018-04-14T13:14:05.826Z,8.70
2018-04-14T13:16:31.944Z,8.70
2018-04-14T13:18:58.750Z,8.70
2018-04-14T13:21:24.895Z,8.70
2018-04-14T13:23:51.021Z,8.70
2018-04-14T13:26:17.317Z,8.60
2018-04-14T13:28:44.157Z,8.60
2018-04-14T13:31:10.424Z,8.60
2018-04-14T13:33:36.604Z,8.60
2018-04-14T13:36:02.742Z,8.60
2018-04-14T13:38:33.551Z,8.60
2018-04-14T13:40:59.765Z,8.70
2018-04-14T13:43:25.975Z,8.70
2018-04-14T13:45:52.086Z,8.70
2018-04-14T13:48:18.189Z,8.70
2018-04-14T13:50:44.316Z,8.70
2018-04-14T13:53:10.430Z,8.70
2018-04-14T13:55:36.517Z,8.70
2018-04-14T13:58:02.573Z,8.70
2018-04-14T14:00:28.619Z,8.70
2018-04-14T14:02:54.722Z,8.70
2018-04-14T14:05:20.871Z,8.70
2018-04-14T14:07:46.984Z,8.70
2018-04-14T14:10:13.097Z,8.70
2018-04-14T14:12:39.990Z,8.70
2018-04-14T14:15:06.077Z,8.60
2018-04-14T14:17:32.350Z,8.70
2018-04-14T14:19:59.189Z,8.70
2018-04-14T14:22:25.441Z,8.70
2018-04-14T14:24:51.660Z,8.70
2018-04-14T14:27:17.731Z,8.70
2018-04-14T14:29:45.779Z,8.80
2018-04-14T14:32:12.144Z,8.80
2018-04-14T14:34:38.190Z,8.70
2018-04-14T14:37:04.282Z,8.80
2018-04-14T14:39:30.446Z,8.80
2018-04-14T14:41:56.588Z,8.80
2018-04-14T14:44:22.738Z,8.80
2018-04-14T14:46:52.280Z,8.80
2018-04-14T14:49:18.343Z,8.90
2018-04-14T14:51:44.485Z,8.80
2018-04-14T14:54:10.933Z,8.90
2018-04-14T14:56:37.101Z,8.80
2018-04-14T14:59:03.266Z,8.80
2018-04-14T15:01:29.498Z,8.80
2018-04-14T15:03:55.721Z,8.80
2018-04-14T15:06:21.852Z,8.80
2018-04-14T15:08:48.213Z,8.90
2018-04-14T15:11:14.655Z,8.80
2018-04-14T15:13:40.783Z,8.80
2018-04-14T15:16:06.893Z,8.80
2018-04-14T15:18:33.268Z,8.80
2018-04-14T15:20:59.448Z,8.80
2018-04-14T15:23:25.635Z,8.80
2018-04-14T15:25:51.743Z,8.80
2018-04-14T15:28:18.650Z,8.80
2018-04-14T15:30:44.804Z,8.80
2018-04-14T15:33:10.969Z,8.80
2018-04-14T15:35:37.215Z,8.80
2018-04-14T15:38:04.054Z,8.80
2018-04-14T15:40:30.228Z,8.80
2018-04-14T15:42:56.475Z,8.80
2018-04-14T15:45:22.558Z,8.70
2018-04-14T15:47:49.312Z,8.70
2018-04-14T15:50:15.452Z,8.70
2018-04-14T15:52:41.678Z,8.70
2018-04-14T15:55:07.858Z,8.60
2018-04-14T15:57:34.028Z,8.70
2018-04-14T16:00:00.878Z,8.60
2018-04-14T16:02:27.195Z,8.60
2018-04-14T16:04:53.438Z,8.60
2018-04-14T16:07:19.613Z,8.60
2018-04-14T16:09:46.446Z,8.60
2018-04-14T16:12:12.925Z,8.60
2018-04-14T16:14:39.053Z,8.60
2018-04-14T16:17:06.224Z,8.60
2018-04-14T16:19:32.347Z,8.60
2018-04-14T16:21:59.186Z,8.60
2018-04-14T16:24:25.466Z,8.60
2018-04-14T16:26:51.557Z,8.70
2018-04-14T16:29:17.711Z,8.60
2018-04-14T16:31:43.921Z,8.70
2018-04-14T16:34:10.020Z,8.70
2018-04-14T16:36:36.167Z,8.60
2018-04-14T16:39:02.606Z,8.60
2018-04-14T16:41:29.574Z,8.60
2018-04-14T16:43:55.878Z,8.60
2018-04-14T16:46:23.065Z,8.60
2018-04-14T16:48:49.210Z,8.70
2018-04-14T16:51:15.291Z,8.70
2018-04-14T16:53:41.488Z,8.60
2018-04-14T16:56:08.752Z,8.70
2018-04-14T16:58:34.927Z,8.70
2018-04-14T17:01:01.041Z,8.70
2018-04-14T17:03:27.126Z,8.80
2018-04-14T17:05:53.460Z,8.70
2018-04-14T17:08:19.849Z,8.80
2018-04-14T17:10:46.837Z,8.80
2018-04-14T17:13:13.336Z,8.80
2018-04-14T17:15:39.455Z,8.90
2018-04-14T17:18:05.747Z,8.90
2018-04-14T17:20:31.860Z,8.90
2018-04-14T17:22:57.998Z,8.80
2018-04-14T17:25:24.170Z,8.80
2018-04-14T17:27:50.435Z,8.80
2018-04-14T17:30:16.509Z,8.80
2018-04-14T17:32:42.635Z,8.80
2018-04-14T17:35:08.763Z,8.90
2018-04-14T17:37:34.983Z,8.90
2018-04-14T17:40:01.176Z,8.90
2018-04-14T17:42:27.384Z,9.00
2018-04-14T17:44:53.521Z,9.00
2018-04-14T17:47:19.606Z,9.00
2018-04-14T17:49:47.159Z,9.10
2018-04-14T17:52:13.320Z,9.00
2018-04-14T17:54:39.978Z,9.00
2018-04-14T17:57:06.212Z,9.00
2018-04-14T17:59:32.595Z,9.00
2018-04-14T18:01:59.594Z,8.90
2018-04-14T18:04:25.771Z,8.90
2018-04-14T18:06:51.911Z,9.00
2018-04-14T18:09:18.270Z,9.00
2018-04-14T18:11:44.434Z,9.00
2018-04-14T18:14:13.606Z,9.00
2018-04-14T18:16:39.855Z,9.00
2018-04-14T18:19:06.087Z,9.00
2018-04-14T18:21:32.558Z,9.00
2018-04-14T18:23:58.643Z,9.10
2018-04-14T18:26:24.806Z,9.10
2018-04-14T18:28:51.072Z,9.10
2018-04-14T18:31:17.172Z,9.10
2018-04-14T18:33:44.059Z,9.10
2018-04-14T18:36:12.780Z,9.10
2018-04-14T18:38:38.910Z,9.10
2018-04-14T18:41:05.099Z,9.20
2018-04-14T18:43:37.295Z,9.10
2018-04-14T18:46:03.391Z,9.20
2018-04-14T18:48:29.562Z,9.10
2018-04-14T18:50:57.423Z,9.10
2018-04-14T18:53:23.712Z,9.10
2018-04-14T18:55:49.983Z,9.10
2018-04-14T18:58:17.257Z,9.10
2018-04-14T19:00:43.370Z,9.10
2018-04-14T19:03:09.466Z,9.10
2018-04-14T19:05:36.941Z,9.10
2018-04-14T19:08:03.181Z,9.10
2018-04-14T19:10:29.300Z,9.10
2018-04-14T19:12:55.515Z,9.10
2018-04-14T19:15:21.710Z,9.20
2018-04-14T19:17:48.641Z,9.20
2018-04-14T19:20:14.728Z,9.10
2018-04-14T19:22:41.182Z,9.10
2018-04-14T19:25:07.294Z,9.20
2018-04-14T19:27:33.568Z,9.20
2018-04-14T19:29:59.849Z,9.20
2018-04-14T19:32:26.015Z,9.20
2018-04-14T19:34:52.406Z,9.20
2018-04-14T19:37:18.540Z,9.20
2018-04-14T19:39:44.616Z,9.20
2018-04-14T19:42:10.913Z,9.20
2018-04-14T19:44:37.779Z,9.30
2018-04-14T19:47:04.426Z,9.30
2018-04-14T19:49:30.546Z,9.30
2018-04-14T19:51:56.690Z,9.20
2018-04-14T19:54:23.648Z,9.20
2018-04-14T19:56:49.852Z,9.10
2018-04-14T19:59:20.273Z,9.10
2018-04-14T20:01:46.394Z,9.10
2018-04-14T20:04:12.927Z,9.10
2018-04-14T20:06:39.079Z,9.10
2018-04-14T20:09:05.984Z,9.10
2018-04-14T20:11:32.190Z,9.10
2018-04-14T20:13:58.432Z,9.10
2018-04-14T20:19:13.136Z,9.10
2018-04-14T20:21:39.276Z,9.10
2018-04-14T20:24:05.934Z,9.10
2018-04-14T20:26:36.550Z,9.10
2018-04-14T20:29:03.376Z,9.10
2018-04-14T20:31:41.007Z,9.20
2018-04-14T20:34:20.692Z,9.20
2018-04-14T20:36:48.025Z,9.20
2018-04-14T20:41:56.323Z,9.20
2018-04-14T20:44:41.283Z,9.10
2018-04-14T20:49:55.178Z,9.20
2018-04-14T20:54:53.917Z,9.20
2018-04-14T20:57:20.421Z,9.20
2018-04-14T20:59:46.602Z,9.20
2018-04-14T21:02:13.647Z,9.20
2018-04-14T21:04:39.718Z,9.20
2018-04-14T21:07:05.935Z,9.20
2018-04-14T21:09:32.355Z,9.20
2018-04-14T21:11:58.425Z,9.20
2018-04-14T21:14:25.415Z,9.20
2018-04-14T21:16:51.672Z,9.30
2018-04-14T21:19:17.773Z,9.30
2018-04-14T21:21:44.053Z,9.30
2018-04-14T21:24:10.257Z,9.20
2018-04-14T21:26:36.432Z,9.20
2018-04-14T21:29:02.696Z,9.20
2018-04-14T21:31:35.614Z,9.20
2018-04-14T21:34:01.856Z,9.20
2018-04-14T21:36:28.094Z,9.20
2018-04-14T21:38:54.358Z,9.30
2018-04-14T21:41:20.511Z,9.30
2018-04-14T21:43:47.746Z,9.30
2018-04-14T21:46:14.131Z,9.30
2018-04-14T21:48:40.338Z,9.30
2018-04-14T21:51:06.566Z,9.30
2018-04-14T21:53:32.732Z,9.30
2018-04-14T21:56:00.891Z,9.30
2018-04-14T21:58:26.995Z,9.30
2018-04-14T22:00:54.883Z,9.30
2018-04-14T22:03:21.005Z,9.30
2018-04-14T22:05:47.330Z,9.30
2018-04-14T22:08:13.646Z,9.30
2018-04-14T22:10:40.302Z,9.30
2018-04-14T22:13:07.147Z,9.30
2018-04-14T22:15:33.419Z,9.30
2018-04-14T22:17:59.535Z,9.40
2018-04-14T22:20:25.675Z,9.40
2018-04-14T22:22:52.039Z,9.40
2018-04-14T22:25:18.188Z,9.40
2018-04-14T22:27:44.264Z,9.50
2018-04-14T22:30:10.435Z,9.50
2018-04-14T22:32:36.557Z,9.50
2018-04-14T22:35:02.740Z,9.50
2018-04-14T22:37:28.866Z,9.40
2018-04-14T22:39:55.044Z,9.50
2018-04-14T22:42:21.527Z,9.40
2018-04-14T22:44:49.373Z,9.50
2018-04-14T22:47:15.478Z,9.40
2018-04-14T22:49:41.695Z,9.40
2018-04-14T22:52:07.820Z,9.50
2018-04-14T22:54:34.002Z,9.40
2018-04-14T22:57:00.243Z,9.40
2018-04-14T22:59:26.389Z,9.40
2018-04-14T23:01:52.490Z,9.40
2018-04-14T23:04:18.648Z,9.40
2018-04-14T23:06:45.593Z,9.40
2018-04-14T23:09:11.645Z,9.40
2018-04-14T23:11:37.852Z,9.40
2018-04-14T23:14:03.987Z,9.40
2018-04-14T23:16:31.125Z,9.40
2018-04-14T23:18:57.206Z,9.40
2018-04-14T23:21:23.381Z,9.40
2018-04-14T23:23:49.470Z,9.40
2018-04-14T23:26:15.755Z,9.40
2018-04-14T23:28:41.972Z,9.40
2018-04-14T23:31:08.168Z,9.40
2018-04-14T23:33:34.239Z,9.40
2018-04-14T23:36:00.383Z,9.40
2018-04-14T23:38:26.582Z,9.40
2018-04-14T23:40:52.810Z,9.40
2018-04-14T23:43:18.937Z,9.40
2018-04-14T23:45:45.073Z,9.40
2018-04-14T23:48:12.448Z,9.40
2018-04-14T23:50:40.013Z,9.40
2018-04-14T23:53:06.092Z,9.40
2018-04-14T23:55:32.192Z,9.40
2018-04-14T23:57:59.109Z,9.40
